Time;durP1;ratioP1;P1;durP2;ratioP2;P2;SDS_P1;SDS_P2;PMS_P1;PMS_P2;Temp;Humidity;BMP_temperature;BMP_pressure;BME280_temperature;BME280_humidity;BME280_pressure;Samples;Min_cycle;Max_cycle;Signal;HPM_P1;HPM_P2
2022/11/01 00:01:49;;;;;;;14.00;8.32;;;13.90;99.90;;;;;;5116137;27;20040;-68
2022/11/01 00:04:15;;;;;;;13.32;8.18;;;14.00;99.90;;;;;;5116189;27;20051;-67
2022/11/01 00:06:41;;;;;;;17.20;8.32;;;14.00;99.90;;;;;;5107467;27;20036;-67
2022/11/01 00:09:06;;;;;;;16.92;8.70;;;14.10;99.90;;;;;;5109598;27;20046;-67
2022/11/01 00:11:32;;;;;;;16.83;8.05;;;14.10;99.90;;;;;;5112654;27;20047;-67
2022/11/01 00:13:58;;;;;;;15.50;8.02;;;14.10;99.90;;;;;;5112855;27;20047;-67
2022/11/01 00:16:24;;;;;;;14.02;7.60;;;14.10;99.90;;;;;;5113751;27;20042;-68
2022/11/01 00:18:49;;;;;;;14.32;7.20;;;14.20;99.90;;;;;;5110503;27;20049;-67
2022/11/01 00:21:16;;;;;;;20.23;7.47;;;14.20;99.90;;;;;;5112333;27;20053;-68
2022/11/01 00:23:42;;;;;;;15.75;8.50;;;14.20;99.90;;;;;;5106284;28;20044;-67
2022/11/01 00:26:14;;;;;;;13.13;7.28;;;14.20;99.90;;;;;;5112115;27;20039;-67
2022/11/01 00:28:40;;;;;;;14.73;6.55;;;14.20;99.90;;;;;;5111679;27;20035;-67
2022/11/01 00:31:05;;;;;;;13.55;6.47;;;14.30;99.90;;;;;;5112604;27;20090;-67
2022/11/01 00:33:31;;;;;;;15.45;6.68;;;14.30;99.90;;;;;;5112211;27;20085;-68
2022/11/01 00:36:00;;;;;;;14.80;7.45;;;14.30;99.90;;;;;;5109699;27;20084;-67
2022/11/01 00:38:27;;;;;;;11.65;6.18;;;14.30;99.90;;;;;;5104442;27;20513;-68
2022/11/01 00:40:52;;;;;;;11.18;6.03;;;14.30;99.90;;;;;;5104996;27;20455;-67
2022/11/01 00:43:18;;;;;;;12.13;6.32;;;14.40;99.90;;;;;;5111800;27;20118;-67
2022/11/01 00:45:45;;;;;;;9.35;5.90;;;14.40;99.90;;;;;;5108399;27;20035;-67
2022/11/01 00:48:11;;;;;;;12.00;6.05;;;14.40;99.90;;;;;;5102774;27;20118;-67
2022/11/01 00:50:38;;;;;;;12.35;6.57;;;14.40;99.90;;;;;;5109593;27;20049;-68
2022/11/01 00:53:04;;;;;;;14.25;6.22;;;14.40;99.90;;;;;;5109623;27;20092;-67
2022/11/01 00:55:30;;;;;;;17.83;5.88;;;14.50;99.90;;;;;;5107407;27;20437;-68
2022/11/01 00:57:55;;;;;;;11.57;6.60;;;14.40;99.90;;;;;;5109761;27;20074;-68
2022/11/01 01:00:21;;;;;;;13.73;5.75;;;14.50;99.90;;;;;;5091514;27;20065;-67
2022/11/01 01:02:46;;;;;;;15.63;6.35;;;14.50;99.90;;;;;;5107597;27;20043;-67
2022/11/01 01:05:12;;;;;;;11.85;5.35;;;14.50;99.90;;;;;;5111829;27;20099;-67
2022/11/01 01:07:38;;;;;;;12.07;5.65;;;14.50;99.90;;;;;;5110865;27;20035;-68
2022/11/01 01:10:05;;;;;;;12.43;5.65;;;14.50;99.90;;;;;;5111348;27;20070;-67
2022/11/01 01:12:31;;;;;;;9.73;5.55;;;14.50;99.90;;;;;;5121581;27;20039;-68
2022/11/01 01:14:57;;;;;;;13.60;5.63;;;14.50;99.90;;;;;;5111709;27;20038;-68
2022/11/01 01:17:23;;;;;;;13.00;7.03;;;14.50;99.90;;;;;;5108743;27;20047;-68
2022/11/01 01:19:48;;;;;;;16.02;6.28;;;14.40;99.90;;;;;;5108769;27;20462;-68
2022/11/01 01:22:14;;;;;;;13.18;5.45;;;14.40;99.90;;;;;;5109600;27;20075;-67
2022/11/01 01:24:44;;;;;;;14.18;5.25;;;14.50;99.90;;;;;;5111405;27;20043;-68
2022/11/01 01:27:11;;;;;;;11.32;5.43;;;14.40;99.90;;;;;;5110213;27;20039;-68
2022/11/01 01:29:40;;;;;;;11.48;5.18;;;14.50;99.90;;;;;;5094270;27;20054;-67
2022/11/01 01:32:07;;;;;;;12.23;4.97;;;14.50;99.90;;;;;;5108366;27;20084;-67
2022/11/01 01:34:33;;;;;;;15.20;5.88;;;14.50;99.90;;;;;;5105830;27;20053;-68
2022/11/01 01:36:59;;;;;;;12.38;5.70;;;14.50;99.90;;;;;;5090398;27;20497;-67
2022/11/01 01:39:24;;;;;;;7.43;4.85;;;14.50;99.90;;;;;;5111112;27;20520;-68
2022/11/01 01:41:56;;;;;;;11.68;4.95;;;14.50;99.90;;;;;;5095140;27;20047;-67
2022/11/01 01:45:18;;;;;;;10.70;5.67;;;14.50;99.90;;;;;;5113789;27;20071;-68
2022/11/01 01:47:47;;;;;;;17.05;5.65;;;14.60;99.90;;;;;;5011113;28;20108;-67
2022/11/01 01:50:17;;;;;;;11.80;5.13;;;14.50;99.90;;;;;;5012482;28;20420;-67
2022/11/01 01:53:12;;;;;;;10.48;4.75;;;14.60;99.90;;;;;;5007637;28;20590;-67
2022/11/01 01:56:08;;;;;;;14.93;5.38;;;14.60;99.90;;;;;;5008355;28;20404;-70
2022/11/01 01:58:48;;;;;;;10.02;5.53;;;14.60;99.90;;;;;;5025879;28;20045;-69
2022/11/01 02:01:14;;;;;;;10.40;5.20;;;14.60;99.90;;;;;;4993050;28;20050;-70
2022/11/01 02:03:48;;;;;;;11.82;5.30;;;14.60;99.90;;;;;;5005173;28;20594;-69
2022/11/01 02:06:31;;;;;;;9.82;5.00;;;14.60;99.90;;;;;;5026232;28;20497;-70
2022/11/01 02:09:02;;;;;;;;;;;14.60;99.90;;;;;;4994320;28;20584;-68
2022/11/01 02:11:29;;;;;;;16.65;5.82;;;14.50;99.90;;;;;;5009209;28;20319;-68
2022/11/01 02:13:56;;;;;;;11.85;5.18;;;14.50;99.90;;;;;;5011815;28;20049;-68
2022/11/01 02:16:37;;;;;;;9.82;4.70;;;14.50;99.90;;;;;;4988772;28;20073;-68
2022/11/01 02:19:44;;;;;;;12.13;5.18;;;14.50;99.90;;;;;;5095039;27;20517;-68
2022/11/01 02:22:25;;;;;;;12.77;5.38;;;14.50;99.90;;;;;;5026568;28;20508;-68
2022/11/01 02:25:21;;;;;;;13.07;4.55;;;14.50;99.90;;;;;;5029881;28;20071;-68
2022/11/01 02:28:05;;;;;;;12.27;4.90;;;14.50;99.90;;;;;;5010656;28;20539;-68
2022/11/01 02:31:15;;;;;;;12.52;5.00;;;14.50;99.90;;;;;;5039978;28;20052;-68
2022/11/01 02:34:16;;;;;;;11.05;5.30;;;14.50;99.90;;;;;;5017852;28;20049;-68
2022/11/01 02:36:50;;;;;;;11.02;5.15;;;14.50;99.90;;;;;;5027453;28;20518;-68
2022/11/01 02:39:21;;;;;;;10.57;5.00;;;14.60;99.90;;;;;;5013037;28;20496;-68
2022/11/01 02:41:57;;;;;;;10.88;4.32;;;14.60;99.90;;;;;;5042174;28;20037;-67
2022/11/01 02:44:27;;;;;;;13.95;4.82;;;14.60;99.90;;;;;;5028619;28;20041;-68
2022/11/01 02:47:00;;;;;;;12.05;4.82;;;14.60;99.90;;;;;;5027855;28;20660;-68
2022/11/01 02:49:39;;;;;;;12.02;5.78;;;14.70;99.90;;;;;;5029926;28;20041;-68
2022/11/01 02:52:08;;;;;;;14.18;5.05;;;14.70;99.90;;;;;;5027307;28;20494;-68
2022/11/01 02:54:39;;;;;;;14.00;4.93;;;14.70;99.90;;;;;;5025280;28;20527;-68
2022/11/01 02:57:35;;;;;;;9.98;5.20;;;14.70;99.90;;;;;;5025000;28;20388;-68
2022/11/01 03:00:21;;;;;;;10.73;4.80;;;14.70;99.90;;;;;;5095537;28;20105;-68
2022/11/01 03:02:50;;;;;;;11.02;4.93;;;14.80;99.90;;;;;;5107953;28;20459;-68
2022/11/01 03:05:36;;;;;;;9.93;4.88;;;14.80;99.90;;;;;;5108374;28;20122;-68
2022/11/01 03:08:06;;;;;;;10.35;5.10;;;14.80;99.90;;;;;;5108098;28;20035;-67
2022/11/01 03:10:54;;;;;;;13.73;5.03;;;14.80;99.90;;;;;;5109706;28;20100;-68
2022/11/01 03:13:38;;;;;;;10.82;4.85;;;14.80;99.90;;;;;;5110929;28;20065;-68
2022/11/01 03:16:30;;;;;;;11.60;4.65;;;14.80;99.90;;;;;;5090826;28;20039;-68
2022/11/01 03:19:16;;;;;;;7.75;4.30;;;14.80;99.90;;;;;;5012865;28;20046;-68
2022/11/01 03:22:26;;;;;;;10.68;5.22;;;14.80;99.90;;;;;;5011045;28;20037;-68
2022/11/01 03:25:39;;;;;;;7.18;4.72;;;14.80;99.90;;;;;;4935714;28;20051;-68
2022/11/01 03:28:21;;;;;;;8.75;4.93;;;14.80;99.90;;;;;;4947095;29;20066;-68
2022/11/01 03:30:50;;;;;;;;;;;14.80;99.90;;;;;;4923105;29;20526;-69
2022/11/01 03:33:18;;;;;;;15.68;5.40;;;14.80;99.90;;;;;;4922093;29;19919;-68
2022/11/01 03:35:50;;;;;;;13.50;5.55;;;14.80;99.90;;;;;;4924945;29;20060;-69
2022/11/01 03:38:25;;;;;;;10.18;4.68;;;14.90;99.90;;;;;;4918902;29;20064;-69
2022/11/01 03:40:59;;;;;;;9.38;4.88;;;14.80;99.90;;;;;;4930228;29;20050;-69
2022/11/01 03:43:26;;;;;;;12.38;5.07;;;14.90;99.90;;;;;;4926601;29;20899;-68
2022/11/01 03:45:52;;;;;;;8.18;4.60;;;14.90;99.90;;;;;;4927810;29;20051;-68
2022/11/01 03:48:18;;;;;;;9.60;5.18;;;14.80;99.90;;;;;;4930262;29;20075;-68
2022/11/01 03:50:52;;;;;;;10.85;4.80;;;14.90;99.90;;;;;;4930641;29;20047;-68
2022/11/01 03:53:18;;;;;;;7.95;4.50;;;14.90;99.90;;;;;;4929276;29;20051;-68
2022/11/01 03:55:44;;;;;;;10.98;5.18;;;14.90;99.90;;;;;;4987220;28;20086;-68
2022/11/01 03:58:40;;;;;;;8.15;4.28;;;15.00;99.90;;;;;;5051957;28;20080;-69
2022/11/01 04:01:08;;;;;;;6.95;4.50;;;15.00;99.90;;;;;;5060272;28;20568;-71
2022/11/01 04:03:34;;;;;;;6.07;4.05;;;15.00;99.90;;;;;;5051925;27;20047;-69
2022/11/01 04:06:04;;;;;;;9.13;4.32;;;15.10;99.90;;;;;;5095242;27;20059;-71
2022/11/01 04:08:39;;;;;;;8.57;4.35;;;15.10;99.90;;;;;;5095229;27;20039;-70
2022/11/01 04:11:15;;;;;;;12.48;4.60;;;15.10;99.90;;;;;;5128753;27;20087;-70
2022/11/01 04:13:50;;;;;;;12.25;4.35;;;15.10;99.90;;;;;;5123108;27;20071;-70
2022/11/01 04:21:54;;;;;;;9.20;4.45;;;15.10;99.90;;;;;;5109856;27;20161;-69
2022/11/01 04:24:19;;;;;;;8.27;4.47;;;15.10;99.90;;;;;;5112085;27;20446;-67
2022/11/01 04:26:48;;;;;;;9.57;4.10;;;15.10;99.90;;;;;;5111296;27;20056;-69
2022/11/01 04:29:15;;;;;;;8.75;4.15;;;15.10;99.90;;;;;;5095089;27;20164;-69
2022/11/01 04:31:41;;;;;;;10.02;4.38;;;15.20;99.90;;;;;;5111944;27;20043;-69
2022/11/01 04:34:06;;;;;;;8.02;4.30;;;15.10;99.90;;;;;;5105465;27;20031;-69
2022/11/01 04:36:32;;;;;;;6.88;3.95;;;15.10;99.90;;;;;;5108167;27;20065;-69
2022/11/01 04:38:57;;;;;;;8.95;5.00;;;15.10;99.90;;;;;;5092148;27;20035;-69
2022/11/01 04:41:25;;;;;;;12.27;4.50;;;15.10;99.90;;;;;;5110377;27;20044;-69
2022/11/01 04:43:53;;;;;;;9.65;5.00;;;15.10;99.90;;;;;;5109892;27;20077;-69
2022/11/01 04:46:19;;;;;;;11.35;4.65;;;15.10;99.90;;;;;;5107681;27;20426;-68
2022/11/01 04:48:44;;;;;;;10.68;4.18;;;15.10;99.90;;;;;;5112871;27;20035;-68
2022/11/01 04:51:10;;;;;;;10.10;3.97;;;15.10;99.90;;;;;;5093362;27;20051;-69
2022/11/01 04:53:36;;;;;;;8.55;4.28;;;15.10;99.90;;;;;;5112076;27;20440;-68
2022/11/01 04:56:03;;;;;;;7.43;4.10;;;15.20;99.90;;;;;;5109952;27;20034;-68
2022/11/01 04:58:29;;;;;;;8.25;4.10;;;15.20;99.90;;;;;;5112728;27;20047;-69
2022/11/01 05:00:55;;;;;;;8.40;4.20;;;15.20;99.90;;;;;;5092555;27;20096;-68
2022/11/01 05:03:21;;;;;;;10.77;4.05;;;15.10;99.90;;;;;;5111634;27;20759;-69
2022/11/01 05:05:46;;;;;;;5.40;3.67;;;15.10;99.90;;;;;;5110600;27;20054;-68
2022/11/01 05:08:12;;;;;;;6.45;3.88;;;15.20;99.90;;;;;;5112031;27;20050;-68
2022/11/01 05:10:43;;;;;;;8.05;4.70;;;15.20;99.90;;;;;;5089053;27;20047;-69
2022/11/01 05:13:10;;;;;;;8.98;3.95;;;15.20;99.90;;;;;;5107031;27;20494;-69
2022/11/01 05:15:36;;;;;;;8.25;3.72;;;15.30;99.90;;;;;;5113316;27;20047;-69
2022/11/01 05:18:03;;;;;;;8.85;4.15;;;15.30;99.90;;;;;;5107888;27;20409;-69
2022/11/01 05:20:29;;;;;;;8.02;4.30;;;15.40;99.90;;;;;;5108022;27;20065;-69
2022/11/01 05:22:59;;;;;;;9.25;3.92;;;15.40;99.90;;;;;;5126234;27;20053;-68
2022/11/01 05:25:26;;;;;;;7.30;3.45;;;15.40;99.90;;;;;;5091428;27;20047;-68
2022/11/01 05:27:56;;;;;;;8.13;3.40;;;15.40;99.90;;;;;;5094760;27;20047;-69
2022/11/01 05:30:22;;;;;;;5.55;2.70;;;15.40;99.90;;;;;;5086166;27;20053;-68
2022/11/01 05:32:48;;;;;;;4.97;2.70;;;15.40;99.90;;;;;;5113136;27;20046;-68
2022/11/01 05:35:13;;;;;;;6.30;2.45;;;15.40;99.90;;;;;;5110227;27;20129;-68
2022/11/01 05:37:39;;;;;;;5.97;2.00;;;15.30;99.90;;;;;;5089814;27;20051;-69
2022/11/01 05:40:05;;;;;;;4.28;1.48;;;15.30;99.90;;;;;;5108193;27;20041;-69
2022/11/01 05:42:31;;;;;;;6.63;1.50;;;15.20;99.90;;;;;;5097945;27;20074;-68
2022/11/01 05:44:56;;;;;;;5.88;1.00;;;15.10;99.90;;;;;;5088565;27;20070;-68
2022/11/01 05:47:22;;;;;;;6.05;1.10;;;15.00;99.90;;;;;;5098212;27;20039;-68
2022/11/01 05:49:48;;;;;;;4.53;1.02;;;14.90;99.90;;;;;;5110592;27;20393;-69
2022/11/01 05:52:13;;;;;;;6.82;1.20;;;14.80;99.90;;;;;;5106738;27;20038;-68
2022/11/01 05:54:39;;;;;;;6.15;0.90;;;14.80;99.90;;;;;;5111493;27;20050;-69
2022/11/01 05:57:05;;;;;;;3.92;0.90;;;14.70;99.90;;;;;;5107885;27;20046;-68
2022/11/01 05:59:30;;;;;;;3.72;0.80;;;14.70;99.90;;;;;;5110237;27;20043;-68
2022/11/01 06:01:56;;;;;;;1.83;0.63;;;14.60;99.90;;;;;;5111367;27;20098;-68
2022/11/01 06:04:22;;;;;;;2.85;0.80;;;14.60;99.90;;;;;;5106973;27;20043;-68
2022/11/01 06:06:47;;;;;;;5.35;0.85;;;14.60;99.90;;;;;;5105683;27;20544;-68
2022/11/01 06:09:13;;;;;;;6.18;1.70;;;14.50;99.90;;;;;;5110954;27;20039;-68
2022/11/01 06:11:38;;;;;;;2.58;0.98;;;14.40;99.90;;;;;;5108066;27;20130;-68
2022/11/01 06:14:04;;;;;;;4.13;0.70;;;14.30;99.90;;;;;;5107557;27;20027;-68
2022/11/01 06:16:30;;;;;;;4.35;1.17;;;14.30;99.90;;;;;;5110824;27;20049;-68
2022/11/01 06:18:55;;;;;;;2.33;0.60;;;14.30;99.90;;;;;;5105994;28;20601;-67
2022/11/01 06:21:21;;;;;;;5.70;0.90;;;14.20;99.90;;;;;;5108066;27;20390;-68
2022/11/01 06:23:51;;;;;;;3.67;0.77;;;14.20;99.90;;;;;;5108899;27;20546;-68
2022/11/01 06:26:17;;;;;;;4.43;1.10;;;14.20;99.90;;;;;;5108266;27;20103;-68
2022/11/01 06:28:44;;;;;;;5.07;0.95;;;14.10;99.90;;;;;;5112515;27;20039;-67
2022/11/01 06:31:09;;;;;;;5.40;1.05;;;14.10;99.90;;;;;;5107639;27;20092;-68
2022/11/01 06:33:35;;;;;;;3.83;0.88;;;14.10;99.90;;;;;;5110807;27;20382;-68
2022/11/01 06:36:01;;;;;;;14.52;1.55;;;14.00;99.90;;;;;;5109379;27;20405;-68
2022/11/01 06:38:27;;;;;;;3.33;0.77;;;14.00;99.90;;;;;;5112315;27;20132;-67
2022/11/01 06:40:52;;;;;;;4.93;0.90;;;14.00;99.90;;;;;;5112570;28;20110;-68
2022/11/01 06:43:18;;;;;;;2.50;0.70;;;14.00;99.90;;;;;;5108042;28;20081;-69
2022/11/01 06:45:44;;;;;;;2.85;0.80;;;13.90;99.90;;;;;;5112635;28;20039;-68
2022/11/01 06:48:09;;;;;;;6.05;1.35;;;13.90;99.90;;;;;;5108113;28;20043;-68
2022/11/01 06:50:35;;;;;;;4.47;1.05;;;13.90;99.90;;;;;;5095014;27;20035;-68
2022/11/01 06:53:01;;;;;;;4.80;1.08;;;13.90;99.90;;;;;;5111689;28;20042;-68
2022/11/01 06:55:28;;;;;;;7.93;0.98;;;13.90;99.90;;;;;;5109013;28;20151;-68
2022/11/01 06:57:55;;;;;;;6.85;1.20;;;13.90;99.90;;;;;;5116096;28;20381;-68
2022/11/01 07:00:21;;;;;;;6.13;1.45;;;13.80;99.90;;;;;;5103639;28;20036;-69
2022/11/01 07:02:46;;;;;;;5.75;1.30;;;13.80;99.90;;;;;;5110852;28;20070;-68
2022/11/01 07:05:12;;;;;;;5.03;1.13;;;13.80;99.90;;;;;;5110792;28;20054;-67
2022/11/01 07:07:37;;;;;;;3.80;0.80;;;13.80;99.90;;;;;;5111738;28;20043;-68
2022/11/01 07:10:04;;;;;;;5.82;1.27;;;13.80;99.90;;;;;;5098496;28;20496;-69
2022/11/01 07:12:30;;;;;;;7.03;1.23;;;13.70;99.90;;;;;;5113225;28;20095;-70
2022/11/01 07:14:55;;;;;;;4.30;1.05;;;13.70;99.90;;;;;;5096156;28;20047;-69
2022/11/01 07:17:21;;;;;;;3.30;0.80;;;13.70;99.90;;;;;;5112893;28;20046;-69
2022/11/01 07:19:46;;;;;;;3.58;0.85;;;13.70;99.90;;;;;;5112755;28;20045;-68
2022/11/01 07:22:13;;;;;;;4.32;0.73;;;13.80;99.90;;;;;;5113038;28;20054;-69
2022/11/01 07:24:39;;;;;;;2.75;0.73;;;13.80;99.90;;;;;;5112595;28;20035;-68
2022/11/01 07:27:04;;;;;;;5.82;1.35;;;13.90;99.90;;;;;;5114294;27;20458;-68
2022/11/01 07:29:30;;;;;;;6.80;1.10;;;14.00;99.90;;;;;;5116364;27;20042;-69
2022/11/01 07:31:56;;;;;;;4.53;0.90;;;14.00;99.90;;;;;;5117241;27;20380;-69
2022/11/01 07:34:21;;;;;;;3.75;0.90;;;14.00;99.90;;;;;;5116997;27;20035;-68
2022/11/01 07:36:50;;;;;;;5.15;1.10;;;14.10;99.90;;;;;;5116741;27;20126;-68
2022/11/01 07:39:16;;;;;;;4.43;1.05;;;14.00;99.90;;;;;;5116462;27;20039;-68
2022/11/01 07:41:41;;;;;;;5.13;0.95;;;14.00;99.90;;;;;;5116301;27;20459;-69
2022/11/01 07:44:07;;;;;;;5.10;1.27;;;14.00;99.90;;;;;;5116809;27;20493;-69
2022/11/01 07:46:33;;;;;;;7.03;1.10;;;14.00;99.90;;;;;;5116087;27;20043;-69
2022/11/01 07:48:59;;;;;;;6.68;1.55;;;13.90;99.90;;;;;;5116903;27;20027;-69
2022/11/01 07:51:24;;;;;;;5.22;1.50;;;13.90;99.90;;;;;;5134627;27;20039;-68
2022/11/01 07:53:50;;;;;;;7.68;1.10;;;13.90;99.90;;;;;;5116114;27;20035;-69
2022/11/01 07:56:16;;;;;;;10.32;1.42;;;13.90;99.90;;;;;;5116134;27;20087;-69
2022/11/01 07:58:42;;;;;;;6.30;1.15;;;13.90;99.90;;;;;;5115982;27;20126;-68
2022/11/01 08:01:09;;;;;;;12.80;1.95;;;14.00;99.90;;;;;;5116069;27;20043;-69
2022/11/01 08:03:35;;;;;;;9.55;1.52;;;14.10;99.90;;;;;;5115828;27;20047;-69
2022/11/01 08:06:00;;;;;;;8.25;1.30;;;14.20;99.90;;;;;;5134619;27;20412;-68
2022/11/01 08:08:26;;;;;;;12.05;1.77;;;14.20;99.90;;;;;;5116407;27;20118;-69
2022/11/01 08:10:52;;;;;;;10.77;1.73;;;14.20;99.90;;;;;;5107056;27;20051;-68
2022/11/01 08:13:21;;;;;;;9.07;2.05;;;14.20;99.90;;;;;;5115565;27;20057;-69
2022/11/01 08:15:49;;;;;;;14.52;3.05;;;14.10;99.90;;;;;;5115632;27;20047;-68
2022/11/01 08:18:16;;;;;;;14.98;2.35;;;14.20;99.90;;;;;;5115434;27;20056;-68
2022/11/01 08:20:42;;;;;;;11.50;2.03;;;14.10;99.90;;;;;;5115587;27;20042;-68
2022/11/01 08:23:09;;;;;;;9.60;1.63;;;14.10;99.90;;;;;;5098117;27;20516;-68
2022/11/01 08:25:35;;;;;;;13.10;2.22;;;14.10;99.90;;;;;;5097403;27;20473;-68
2022/11/01 08:28:09;;;;;;;14.52;2.63;;;14.10;99.90;;;;;;5115264;27;20035;-68
2022/11/01 08:30:37;;;;;;;20.98;2.72;;;14.20;99.90;;;;;;5115086;27;20039;-68
2022/11/01 08:33:04;;;;;;;16.52;1.85;;;14.20;99.90;;;;;;5115467;27;20028;-69
2022/11/01 08:35:31;;;;;;;15.23;2.47;;;14.30;99.90;;;;;;5116015;27;20061;-68
2022/11/01 08:37:57;;;;;;;17.08;2.50;;;14.30;99.90;;;;;;5113846;27;20035;-69
2022/11/01 08:40:24;;;;;;;10.68;2.92;;;14.40;99.90;;;;;;5098277;27;20075;-68
2022/11/01 08:42:50;;;;;;;17.30;2.80;;;14.50;99.90;;;;;;5115071;27;20042;-68
2022/11/01 08:45:16;;;;;;;13.63;2.55;;;14.50;99.90;;;;;;5115270;27;20039;-67
2022/11/01 08:47:43;;;;;;;11.70;2.20;;;14.40;99.90;;;;;;5115028;27;20039;-69
2022/11/01 08:50:11;;;;;;;14.10;2.17;;;14.50;99.90;;;;;;5115299;27;20031;-68
2022/11/01 08:52:37;;;;;;;14.02;2.40;;;14.50;99.90;;;;;;5115223;27;20051;-68
2022/11/01 08:55:03;;;;;;;13.90;2.60;;;14.50;99.90;;;;;;5115250;27;20388;-68
2022/11/01 08:57:29;;;;;;;12.15;2.60;;;14.60;99.90;;;;;;5098306;27;20043;-68
2022/11/01 08:59:55;;;;;;;14.25;2.30;;;14.60;99.90;;;;;;5115271;27;20366;-69
2022/11/01 09:02:21;;;;;;;13.55;2.10;;;14.70;99.90;;;;;;5115195;27;20046;-68
2022/11/01 09:04:46;;;;;;;16.02;2.63;;;14.80;99.90;;;;;;5114671;27;20050;-68
2022/11/01 09:07:12;;;;;;;16.98;2.35;;;14.90;99.90;;;;;;5114789;27;20085;-69
2022/11/01 09:09:38;;;;;;;12.27;2.08;;;14.90;99.90;;;;;;5133206;27;20054;-69
2022/11/01 09:12:04;;;;;;;11.75;1.95;;;15.10;99.90;;;;;;5114732;27;20532;-68
2022/11/01 09:14:30;;;;;;;14.45;2.05;;;15.10;99.90;;;;;;5114867;27;20451;-67
2022/11/01 09:16:55;;;;;;;16.10;2.53;;;15.30;99.90;;;;;;5114502;27;20043;-68
2022/11/01 09:19:21;;;;;;;19.10;2.22;;;15.30;99.90;;;;;;5114675;27;20087;-68
2022/11/01 09:21:47;;;;;;;10.38;1.63;;;15.30;99.90;;;;;;5114477;27;20450;-68
2022/11/01 09:24:15;;;;;;;16.25;2.08;;;15.30;99.90;;;;;;5114628;27;20031;-69
2022/11/01 09:26:41;;;;;;;14.10;2.05;;;15.50;99.90;;;;;;5114560;27;20090;-69
2022/11/01 09:29:07;;;;;;;10.40;2.50;;;15.40;99.90;;;;;;5114315;27;20100;-67
2022/11/01 09:31:33;;;;;;;16.92;2.25;;;15.40;99.90;;;;;;5114530;27;20046;-68
2022/11/01 09:34:00;;;;;;;14.13;3.15;;;15.60;99.90;;;;;;5114071;27;20035;-68
2022/11/01 09:36:27;;;;;;;10.98;2.10;;;15.60;99.90;;;;;;5114330;27;20107;-68
2022/11/01 09:38:53;;;;;;;11.05;2.10;;;15.70;99.90;;;;;;5114397;27;20075;-68
2022/11/01 09:41:34;;;;;;;13.40;2.05;;;15.90;99.90;;;;;;5114500;27;20047;-69
2022/11/01 09:44:02;;;;;;;13.00;2.40;;;16.00;99.90;;;;;;5114076;27;20043;-69
2022/11/01 09:46:42;;;;;;;13.15;2.15;;;16.10;99.90;;;;;;5114223;27;20043;-68
2022/11/01 09:49:14;;;;;;;12.10;2.00;;;16.10;99.90;;;;;;5130898;27;20043;-69
2022/11/01 09:51:39;;;;;;;20.10;3.15;;;16.20;99.90;;;;;;5114409;27;20126;-69
2022/11/01 09:54:07;;;;;;;11.25;2.20;;;16.30;99.90;;;;;;5113894;27;20160;-69
2022/11/01 09:57:14;;;;;;;19.30;3.65;;;16.40;99.90;;;;;;5114471;27;20047;-68
2022/11/01 09:59:55;;;;;;;11.55;3.03;;;16.20;99.90;;;;;;5113501;27;20130;-67
2022/11/01 10:02:49;;;;;;;13.73;2.78;;;16.10;99.90;;;;;;5108754;27;20091;-69
2022/11/01 10:05:49;;;;;;;16.95;3.30;;;16.20;99.90;;;;;;5113598;27;20073;-69
2022/11/01 10:08:35;;;;;;;18.38;2.65;;;16.20;99.90;;;;;;5113179;27;20071;-68
2022/11/01 10:11:31;;;;;;;8.60;1.90;;;16.30;99.90;;;;;;5112927;27;20050;-68
2022/11/01 10:14:09;;;;;;;10.75;2.08;;;16.40;99.90;;;;;;5113285;27;20043;-70
2022/11/01 10:16:37;;;;;;;16.50;2.67;;;16.60;99.90;;;;;;5113520;27;20083;-68
2022/11/01 10:19:14;;;;;;;14.60;2.50;;;16.50;99.90;;;;;;5131520;27;20081;-68
2022/11/01 10:21:47;;;;;;;18.77;2.55;;;16.40;99.90;;;;;;5113279;27;20126;-68
2022/11/01 10:24:37;;;;;;;12.55;2.13;;;16.30;99.90;;;;;;5113114;27;20081;-68
2022/11/01 10:27:23;;;;;;;16.90;2.70;;;16.50;99.90;;;;;;5112849;27;20051;-68
2022/11/01 10:29:55;;;;;;;11.93;2.45;;;16.60;99.90;;;;;;5112766;27;20512;-68
2022/11/01 10:32:43;;;;;;;11.53;2.37;;;16.50;99.90;;;;;;5111846;27;20042;-69
2022/11/01 10:35:24;;;;;;;16.83;2.83;;;16.40;99.90;;;;;;5113645;27;20393;-68
2022/11/01 10:37:58;;;;;;;11.75;2.72;;;16.10;99.90;;;;;;5113376;27;20099;-69
2022/11/01 10:40:29;;;;;;;14.82;2.90;;;16.00;99.90;;;;;;5113148;27;20446;-68
2022/11/01 10:42:54;;;;;;;12.05;2.10;;;15.90;99.90;;;;;;5113242;27;20397;-68
2022/11/01 10:45:22;;;;;;;13.45;2.15;;;16.00;99.90;;;;;;5112917;28;20036;-68
2022/11/01 10:47:55;;;;;;;14.68;2.50;;;15.90;99.90;;;;;;5113239;28;20105;-68
2022/11/01 10:50:27;;;;;;;15.70;2.30;;;15.70;99.90;;;;;;5112917;28;20043;-69
2022/11/01 10:53:04;;;;;;;11.88;2.00;;;15.60;99.90;;;;;;5113186;28;20451;-69
2022/11/01 10:55:47;;;;;;;12.77;2.30;;;15.50;99.90;;;;;;5112563;28;20443;-68
2022/11/01 10:58:22;;;;;;;16.75;2.70;;;15.50;99.90;;;;;;5112654;28;20055;-69
2022/11/01 11:00:49;;;;;;;12.48;2.08;;;15.40;99.90;;;;;;5113209;27;20039;-68
2022/11/01 11:03:22;;;;;;;12.52;2.75;;;15.40;99.90;;;;;;5116288;27;20054;-69
2022/11/01 11:05:50;;;;;;;8.88;2.05;;;15.60;99.90;;;;;;5099490;27;20059;-68
2022/11/01 11:08:19;;;;;;;14.70;2.53;;;15.80;99.90;;;;;;5116842;27;20035;-69
2022/11/01 11:10:46;;;;;;;12.02;2.05;;;16.00;99.90;;;;;;5100155;27;20138;-67
2022/11/01 11:13:15;;;;;;;12.25;2.92;;;16.00;99.90;;;;;;5117147;27;20035;-68
2022/11/01 11:15:43;;;;;;;13.88;3.08;;;16.10;99.90;;;;;;5117106;27;20031;-69
2022/11/01 11:18:38;;;;;;;9.80;1.83;;;16.20;99.90;;;;;;5100113;27;20079;-67
2022/11/01 11:21:09;;;;;;;15.82;2.85;;;16.20;99.90;;;;;;5015511;28;20860;-69
2022/11/01 11:23:41;;;;;;;9.88;1.85;;;16.10;99.90;;;;;;5015386;28;20046;-68
2022/11/01 11:26:15;;;;;;;13.82;2.10;;;16.10;99.90;;;;;;5015262;28;20065;-69
2022/11/01 11:28:44;;;;;;;12.38;2.05;;;16.10;99.90;;;;;;5003895;28;20473;-69
2022/11/01 11:31:19;;;;;;;13.85;2.35;;;16.10;99.90;;;;;;5012722;28;20053;-68
2022/11/01 11:33:51;;;;;;;11.10;1.88;;;16.10;99.90;;;;;;5015241;28;20068;-68
2022/11/01 11:36:23;;;;;;;9.52;2.15;;;16.10;99.90;;;;;;5015178;28;20125;-69
2022/11/01 11:38:50;;;;;;;9.45;1.80;;;16.00;99.90;;;;;;4998693;28;20053;-68
2022/11/01 11:41:48;;;;;;;11.32;2.03;;;15.90;99.90;;;;;;5014836;28;20079;-68
2022/11/01 11:44:39;;;;;;;11.50;1.98;;;15.90;99.90;;;;;;4956569;28;20082;-69
2022/11/01 11:47:15;;;;;;;10.02;2.40;;;15.90;99.90;;;;;;4972405;28;20054;-69
2022/11/01 11:49:41;;;;;;;13.65;1.90;;;16.00;99.90;;;;;;4972555;28;20398;-68
2022/11/01 11:52:16;;;;;;;9.00;1.88;;;16.00;99.90;;;;;;4969932;28;20593;-69
2022/11/01 11:54:43;;;;;;;10.50;2.00;;;16.10;99.90;;;;;;4971918;28;20065;-68
2022/11/01 11:57:15;;;;;;;10.00;1.67;;;16.00;99.90;;;;;;4984649;28;20053;-68
2022/11/01 11:59:42;;;;;;;10.02;1.80;;;16.00;99.90;;;;;;5033536;28;20405;-69
2022/11/01 12:02:21;;;;;;;11.35;1.95;;;16.00;99.90;;;;;;5033974;28;20048;-68
2022/11/01 12:04:55;;;;;;;11.52;1.70;;;16.00;99.90;;;;;;5033891;28;20040;-68
2022/11/01 12:07:32;;;;;;;10.18;1.88;;;16.10;99.90;;;;;;5032799;28;20104;-69
2022/11/01 12:10:03;;;;;;;6.07;1.45;;;16.10;99.90;;;;;;5029741;28;20038;-68
2022/11/01 12:12:31;;;;;;;10.93;1.65;;;16.10;99.90;;;;;;5049550;28;20061;-69
2022/11/01 12:14:59;;;;;;;10.52;1.83;;;16.20;99.90;;;;;;5033820;28;20075;-69
2022/11/01 12:17:32;;;;;;;9.40;1.88;;;16.30;99.90;;;;;;5050495;28;20048;-69
2022/11/01 12:20:24;;;;;;;13.23;1.40;;;16.30;99.90;;;;;;5076746;28;20043;-68
2022/11/01 12:23:02;;;;;;;12.30;2.13;;;16.30;99.90;;;;;;5107532;28;20550;-68
2022/11/01 12:25:28;;;;;;;13.05;1.60;;;16.20;99.90;;;;;;5112269;28;20046;-69
2022/11/01 12:28:00;;;;;;;8.93;2.15;;;16.20;99.90;;;;;;5111894;28;20036;-68
2022/11/01 12:30:31;;;;;;;10.60;1.33;;;16.10;99.90;;;;;;5112267;28;20043;-69
2022/11/01 12:33:01;;;;;;;10.52;1.60;;;16.20;99.90;;;;;;5094877;28;20039;-69
2022/11/01 12:35:41;;;;;;;9.35;1.73;;;16.20;99.90;;;;;;5112138;28;20126;-68
2022/11/01 12:38:44;;;;;;;9.07;1.80;;;16.30;99.90;;;;;;5112067;28;20027;-68
2022/11/01 12:41:32;;;;;;;11.43;1.50;;;16.30;99.90;;;;;;5111901;28;20027;-69
2022/11/01 12:44:19;;;;;;;11.60;1.70;;;16.40;99.90;;;;;;5112109;28;20032;-69
2022/11/01 12:46:50;;;;;;;11.63;1.80;;;16.60;99.90;;;;;;5111769;28;20105;-68
2022/11/01 12:49:33;;;;;;;8.63;1.48;;;16.70;99.90;;;;;;5112121;28;20035;-68
2022/11/01 12:52:05;;;;;;;9.20;1.40;;;17.00;99.90;;;;;;5111630;28;20027;-68
2022/11/01 12:54:44;;;;;;;9.15;1.60;;;16.90;99.90;;;;;;5111906;28;20115;-69
2022/11/01 12:57:17;;;;;;;7.80;1.50;;;16.90;99.90;;;;;;5111965;28;20093;-68
2022/11/01 12:59:44;;;;;;;17.25;2.78;;;16.80;99.90;;;;;;5111823;28;20075;-69
2022/11/01 13:02:42;;;;;;;11.70;2.08;;;16.80;99.90;;;;;;5111570;28;20428;-69
2022/11/01 13:05:46;;;;;;;7.40;1.75;;;16.90;99.90;;;;;;5111480;28;20043;-68
2022/11/01 13:08:40;;;;;;;8.57;1.52;;;17.60;99.90;;;;;;5013543;28;20481;-68